Time;durP1;ratioP1;P1;durP2;ratioP2;P2;SDS_P1;SDS_P2;PMS_P1;PMS_P2;Temp;Humidity;BMP_temperature;BMP_pressure;BME280_temperature;BME280_humidity;BME280_pressure;Samples;Min_cycle;Max_cycle;Signal;HPM_P1;HPM_P2
2023/12/01 00:02:13;;;;;;;19.07;13.77;;;7.30;82.50;;;;;;5076918;28;20312;-62
2023/12/01 00:04:40;;;;;;;14.80;11.93;;;7.30;82.50;;;;;;5070467;28;20450;-63
2023/12/01 00:07:06;;;;;;;13.27;11.23;;;7.20;82.50;;;;;;5087983;28;20445;-62
2023/12/01 00:09:33;;;;;;;15.07;11.30;;;7.30;82.60;;;;;;5084253;28;20493;-62
2023/12/01 00:12:00;;;;;;;12.63;10.53;;;7.30;82.70;;;;;;5070284;28;20451;-63
2023/12/01 00:14:28;;;;;;;12.37;10.97;;;7.20;82.50;;;;;;5089594;28;20449;-61
2023/12/01 00:16:55;;;;;;;16.10;11.10;;;7.20;82.60;;;;;;5072153;28;20446;-64
2023/12/01 00:19:22;;;;;;;15.00;11.73;;;7.20;82.50;;;;;;5075277;28;20478;-63
2023/12/01 00:21:49;;;;;;;16.47;11.67;;;7.30;82.80;;;;;;5086046;28;20448;-61
2023/12/01 00:24:16;;;;;;;13.97;11.70;;;7.20;82.80;;;;;;5071105;28;20448;-63
2023/12/01 00:26:43;;;;;;;14.27;12.27;;;7.30;82.90;;;;;;5070081;28;20445;-61
2023/12/01 00:29:10;;;;;;;14.73;12.57;;;7.30;82.90;;;;;;5069938;28;20998;-64
2023/12/01 00:31:38;;;;;;;18.47;13.47;;;7.30;82.90;;;;;;5069534;28;20454;-63
2023/12/01 00:34:05;;;;;;;18.77;13.37;;;7.20;82.90;;;;;;5071466;28;20959;-63
2023/12/01 00:36:32;;;;;;;15.47;12.40;;;7.30;83.00;;;;;;5078844;28;20454;-65
2023/12/01 00:38:59;;;;;;;15.70;12.87;;;7.30;83.00;;;;;;5070122;28;20451;-63
2023/12/01 00:41:26;;;;;;;14.47;11.83;;;7.30;83.20;;;;;;5090027;28;20489;-61
2023/12/01 00:43:53;;;;;;;14.57;10.97;;;7.30;83.20;;;;;;5084423;28;20458;-62
2023/12/01 00:46:20;;;;;;;15.37;12.10;;;7.30;83.00;;;;;;5076028;28;20449;-63
2023/12/01 00:48:48;;;;;;;13.00;11.03;;;7.30;83.00;;;;;;5044420;28;20804;-63
2023/12/01 00:51:15;;;;;;;15.20;11.30;;;7.30;82.90;;;;;;5069782;28;20446;-63
2023/12/01 00:53:43;;;;;;;14.20;11.60;;;7.30;83.00;;;;;;5052166;28;20883;-62
2023/12/01 00:56:12;;;;;;;14.50;11.67;;;7.30;82.90;;;;;;5078160;28;20450;-64
2023/12/01 00:58:39;;;;;;;14.60;11.23;;;7.30;83.00;;;;;;5085164;28;20446;-63
2023/12/01 01:01:06;;;;;;;15.90;11.60;;;7.30;83.00;;;;;;5072545;28;20811;-62
2023/12/01 01:03:34;;;;;;;17.60;10.70;;;7.30;83.10;;;;;;5088312;28;20439;-62
2023/12/01 01:06:03;;;;;;;12.93;11.23;;;7.30;83.10;;;;;;5082840;28;20451;-62
2023/12/01 01:08:30;;;;;;;14.77;11.77;;;7.30;83.20;;;;;;5070027;28;20475;-63
2023/12/01 01:10:58;;;;;;;14.37;11.20;;;7.30;83.30;;;;;;5070009;28;20439;-63
2023/12/01 01:13:27;;;;;;;16.80;11.47;;;7.30;83.20;;;;;;5073029;28;20559;-63
2023/12/01 01:15:54;;;;;;;16.37;11.83;;;7.30;83.20;;;;;;5083621;28;20463;-63
2023/12/01 01:18:22;;;;;;;15.07;11.13;;;7.40;83.20;;;;;;5077883;28;20448;-63
2023/12/01 01:20:48;;;;;;;14.90;11.13;;;7.40;83.20;;;;;;5090147;28;20438;-64
2023/12/01 01:23:17;;;;;;;15.83;11.10;;;7.40;83.10;;;;;;5072785;28;20997;-63
2023/12/01 01:25:44;;;;;;;14.80;11.33;;;7.40;83.00;;;;;;5069697;28;20542;-61
2023/12/01 01:28:11;;;;;;;15.80;11.37;;;7.30;83.00;;;;;;5088100;28;20470;-63
2023/12/01 01:30:38;;;;;;;16.00;11.37;;;7.40;83.10;;;;;;5080166;28;20471;-63
2023/12/01 01:33:05;;;;;;;12.00;10.57;;;7.40;83.10;;;;;;5076200;28;20493;-63
2023/12/01 01:35:32;;;;;;;13.87;11.13;;;7.40;83.10;;;;;;5071072;28;20813;-63
2023/12/01 01:38:00;;;;;;;15.07;11.33;;;7.30;83.10;;;;;;5085630;28;20549;-63
2023/12/01 01:40:29;;;;;;;16.80;11.37;;;7.40;83.00;;;;;;5070198;28;20570;-64
2023/12/01 01:42:56;;;;;;;15.03;10.70;;;7.40;83.20;;;;;;5083309;28;20441;-62
2023/12/01 01:45:23;;;;;;;13.30;10.40;;;7.40;83.30;;;;;;5084489;28;20431;-63
2023/12/01 01:47:52;;;;;;;13.37;10.40;;;7.40;83.40;;;;;;5074459;28;20443;-61
2023/12/01 01:50:22;;;;;;;15.07;11.07;;;7.40;83.40;;;;;;5073398;28;20443;-62
2023/12/01 01:52:50;;;;;;;13.40;11.47;;;7.40;83.30;;;;;;5081926;28;20478;-63
2023/12/01 01:55:17;;;;;;;17.07;11.70;;;7.40;83.30;;;;;;5087164;28;20458;-63
2023/12/01 01:57:47;;;;;;;14.33;11.20;;;7.30;83.20;;;;;;5073031;28;20440;-63
2023/12/01 02:00:16;;;;;;;16.30;12.30;;;7.30;83.30;;;;;;5074003;28;20521;-63
2023/12/01 02:02:43;;;;;;;16.17;12.20;;;7.30;83.40;;;;;;5079631;28;20702;-63
2023/12/01 02:05:13;;;;;;;18.50;13.13;;;7.30;83.30;;;;;;5078049;28;20442;-63
2023/12/01 02:07:41;;;;;;;16.43;11.97;;;7.30;83.40;;;;;;5076154;28;20439;-62
2023/12/01 02:10:15;;;;;;;17.87;12.53;;;7.30;84.20;;;;;;5082109;28;20810;-61
2023/12/01 02:12:42;;;;;;;15.20;12.23;;;7.30;83.40;;;;;;5085715;28;20447;-64
2023/12/01 02:15:11;;;;;;;15.50;12.40;;;7.40;83.60;;;;;;5088290;28;20932;-63
2023/12/01 02:17:38;;;;;;;15.27;12.17;;;7.40;84.30;;;;;;5074686;28;20443;-63
2023/12/01 02:20:06;;;;;;;18.20;12.73;;;7.40;83.60;;;;;;5072689;28;20440;-63
2023/12/01 02:22:35;;;;;;;17.00;12.53;;;7.40;83.40;;;;;;5077766;28;20479;-63
2023/12/01 02:25:02;;;;;;;16.73;12.13;;;7.40;83.40;;;;;;5073986;28;20474;-64
2023/12/01 02:27:29;;;;;;;17.43;13.03;;;7.40;83.40;;;;;;5091846;28;20511;-63
2023/12/01 02:29:56;;;;;;;18.10;13.30;;;7.40;83.40;;;;;;5084197;28;20501;-63
2023/12/01 02:32:22;;;;;;;18.67;13.73;;;7.40;83.40;;;;;;5054389;28;20550;-62
2023/12/01 02:34:49;;;;;;;19.67;13.83;;;7.40;83.40;;;;;;5073927;28;20487;-64
2023/12/01 02:37:16;;;;;;;17.13;12.03;;;7.40;83.40;;;;;;5038540;28;20450;-63
2023/12/01 02:39:44;;;;;;;17.63;13.40;;;7.40;83.40;;;;;;5090568;28;20473;-63
2023/12/01 02:42:11;;;;;;;17.13;12.83;;;7.40;83.50;;;;;;5090535;28;20453;-62
2023/12/01 02:44:38;;;;;;;16.87;12.87;;;7.40;83.70;;;;;;5072799;28;20447;-62
2023/12/01 02:47:05;;;;;;;16.87;12.27;;;7.40;83.70;;;;;;5086871;28;20470;-62
2023/12/01 02:49:32;;;;;;;17.17;12.87;;;7.40;83.70;;;;;;5075579;28;20451;-63
2023/12/01 02:51:59;;;;;;;16.47;12.33;;;7.40;83.60;;;;;;5086889;28;20464;-63
2023/12/01 02:54:26;;;;;;;17.53;12.70;;;7.50;83.60;;;;;;5072228;28;20518;-63
2023/12/01 02:56:54;;;;;;;17.67;12.77;;;7.50;83.70;;;;;;5072072;28;20443;-63
2023/12/01 02:59:21;;;;;;;17.23;12.47;;;7.50;83.70;;;;;;5073602;28;20466;-63
2023/12/01 03:01:48;;;;;;;15.13;12.57;;;7.50;83.70;;;;;;5075746;28;20538;-63
2023/12/01 03:04:15;;;;;;;15.53;12.17;;;7.50;83.80;;;;;;5072868;28;20523;-63
2023/12/01 03:06:42;;;;;;;18.17;12.73;;;7.50;84.30;;;;;;5082825;28;20817;-64
2023/12/01 03:09:16;;;;;;;16.77;13.23;;;7.50;83.50;;;;;;5088637;28;20470;-63
2023/12/01 03:11:44;;;;;;;15.50;11.97;;;7.50;83.50;;;;;;5088166;28;20442;-64
2023/12/01 03:14:12;;;;;;;17.10;11.47;;;7.50;83.50;;;;;;5091339;28;20480;-63
2023/12/01 03:16:39;;;;;;;17.80;12.77;;;7.50;83.50;;;;;;5079369;28;20448;-64
2023/12/01 03:19:08;;;;;;;18.10;12.20;;;7.50;83.50;;;;;;5073861;28;20447;-63
2023/12/01 03:21:35;;;;;;;18.83;12.83;;;7.50;83.40;;;;;;5073718;28;20446;-64
2023/12/01 03:24:02;;;;;;;20.27;14.13;;;7.40;84.10;;;;;;5089864;28;20435;-63
2023/12/01 03:26:29;;;;;;;18.50;14.17;;;7.40;83.40;;;;;;5088930;28;20439;-63
2023/12/01 03:28:56;;;;;;;19.00;14.77;;;7.40;83.20;;;;;;5073422;28;20481;-63
2023/12/01 03:31:24;;;;;;;20.60;13.97;;;7.40;83.10;;;;;;5088260;28;20449;-64
2023/12/01 03:33:51;;;;;;;18.43;13.13;;;7.40;83.10;;;;;;5073625;28;21024;-63
2023/12/01 03:36:17;;;;;;;19.63;13.90;;;7.40;83.00;;;;;;5090693;28;20552;-63
2023/12/01 03:38:44;;;;;;;16.87;13.63;;;7.40;83.00;;;;;;5079016;28;20458;-64
2023/12/01 03:41:11;;;;;;;17.13;14.17;;;7.40;82.90;;;;;;5019370;28;20435;-64
2023/12/01 03:43:38;;;;;;;18.07;14.40;;;7.40;82.80;;;;;;5072395;28;20447;-64
2023/12/01 03:46:06;;;;;;;19.50;14.20;;;7.40;82.90;;;;;;5062761;28;20435;-62
2023/12/01 03:48:34;;;;;;;17.53;11.83;;;7.40;82.90;;;;;;5082254;28;20978;-63
2023/12/01 03:51:01;;;;;;;18.10;13.77;;;7.30;82.90;;;;;;5038965;28;20455;-64
2023/12/01 03:53:30;;;;;;;20.63;13.90;;;7.40;83.10;;;;;;5091088;28;20839;-63
2023/12/01 03:55:57;;;;;;;19.13;14.37;;;7.30;83.00;;;;;;5073420;28;20831;-63
2023/12/01 03:58:25;;;;;;;18.73;13.80;;;7.30;83.80;;;;;;5079225;28;20443;-63
2023/12/01 04:00:52;;;;;;;19.37;13.77;;;7.30;83.10;;;;;;5090761;28;20457;-64
2023/12/01 04:03:19;;;;;;;18.05;12.80;;;7.30;83.00;;;;;;5086314;28;20534;-63
2023/12/01 04:05:48;;;;;;;20.33;13.97;;;7.30;83.20;;;;;;5083426;28;20674;-63
2023/12/01 04:08:14;;;;;;;17.57;13.40;;;7.30;83.30;;;;;;5083798;28;20436;-63
2023/12/01 04:10:42;;;;;;;18.20;12.93;;;7.30;83.30;;;;;;5070681;28;20467;-63
2023/12/01 04:13:09;;;;;;;16.57;12.90;;;7.20;83.20;;;;;;5070981;28;20447;-63
2023/12/01 04:15:37;;;;;;;19.53;14.47;;;7.20;83.20;;;;;;5080060;28;20442;-64
2023/12/01 04:18:07;;;;;;;19.80;13.23;;;7.20;83.30;;;;;;5083626;28;21025;-64
2023/12/01 04:20:38;;;;;;;17.37;13.47;;;7.20;83.30;;;;;;5070708;28;20448;-64
2023/12/01 04:23:09;;;;;;;19.13;13.57;;;7.20;83.30;;;;;;5075664;28;20460;-64
2023/12/01 04:25:36;;;;;;;19.03;13.87;;;7.20;83.40;;;;;;5085566;28;20885;-63
2023/12/01 04:28:03;;;;;;;21.10;14.17;;;7.20;83.40;;;;;;5085414;28;20987;-62
2023/12/01 04:30:30;;;;;;;20.67;15.37;;;7.30;83.60;;;;;;5077811;28;20446;-63
2023/12/01 04:32:59;;;;;;;20.50;15.27;;;7.30;83.60;;;;;;5089613;28;20960;-62
2023/12/01 04:35:28;;;;;;;19.77;14.50;;;7.30;83.50;;;;;;5076763;28;20517;-64
2023/12/01 04:37:55;;;;;;;19.47;13.93;;;7.30;83.50;;;;;;5073239;28;20479;-63
2023/12/01 04:40:23;;;;;;;19.77;15.20;;;7.30;83.30;;;;;;5090563;28;20499;-61
2023/12/01 04:42:51;;;;;;;21.67;14.83;;;7.30;83.40;;;;;;5089824;28;20439;-61
2023/12/01 04:45:19;;;;;;;17.97;14.33;;;7.30;83.40;;;;;;5089618;28;20946;-62
2023/12/01 04:47:50;;;;;;;18.63;14.57;;;7.30;83.30;;;;;;5079201;28;20446;-63
2023/12/01 04:50:18;;;;;;;18.83;14.00;;;7.30;83.20;;;;;;5070848;28;20444;-61
2023/12/01 04:52:46;;;;;;;16.67;13.13;;;7.20;83.20;;;;;;5070875;28;20478;-63
2023/12/01 04:55:14;;;;;;;19.50;14.07;;;7.20;83.20;;;;;;5080474;28;20482;-64
2023/12/01 04:57:43;;;;;;;21.40;14.73;;;7.20;83.20;;;;;;5070165;28;20511;-62
2023/12/01 05:00:19;;;;;;;20.73;14.33;;;7.20;83.30;;;;;;5089499;28;20447;-62
2023/12/01 05:02:49;;;;;;;19.77;14.13;;;7.20;83.30;;;;;;5078965;28;20946;-64
2023/12/01 05:05:17;;;;;;;21.15;14.38;;;7.20;83.20;;;;;;5077864;28;20819;-62
2023/12/01 05:07:44;;;;;;;19.97;14.47;;;7.20;83.30;;;;;;5070720;28;20200;-63
2023/12/01 05:10:15;;;;;;;21.50;14.67;;;7.20;83.20;;;;;;5090400;28;20450;-63
2023/12/01 05:12:56;;;;;;;20.67;13.90;;;7.20;83.20;;;;;;5082710;28;20970;-64
2023/12/01 05:15:24;;;;;;;18.87;13.97;;;7.20;83.10;;;;;;5071834;28;20488;-63
2023/12/01 05:17:52;;;;;;;18.27;15.00;;;7.20;83.10;;;;;;5075632;28;20715;-64
2023/12/01 05:20:22;;;;;;;20.33;14.40;;;7.20;83.00;;;;;;5073720;28;20470;-63
2023/12/01 05:22:50;;;;;;;21.03;15.30;;;7.20;82.90;;;;;;5086417;28;20454;-64
2023/12/01 05:25:19;;;;;;;20.57;14.43;;;7.20;82.90;;;;;;5083156;28;20538;-64
2023/12/01 05:27:49;;;;;;;18.83;14.10;;;7.20;83.00;;;;;;5074230;28;20466;-63
2023/12/01 05:30:17;;;;;;;20.13;14.40;;;7.10;83.00;;;;;;5075177;28;20443;-64
2023/12/01 05:32:46;;;;;;;23.27;14.47;;;7.10;83.00;;;;;;5075286;28;20453;-62
2023/12/01 05:35:13;;;;;;;21.63;14.53;;;7.10;83.10;;;;;;5055610;28;20569;-63
2023/12/01 05:37:41;;;;;;;17.37;13.27;;;7.10;83.80;;;;;;5073450;28;20453;-64
2023/12/01 05:40:10;;;;;;;20.67;14.83;;;7.10;83.20;;;;;;5090029;28;20443;-64
2023/12/01 05:42:37;;;;;;;19.63;14.27;;;7.10;83.10;;;;;;5091136;28;20466;-63
2023/12/01 05:45:11;;;;;;;22.47;15.23;;;7.10;83.10;;;;;;5091699;28;20431;-62
2023/12/01 05:47:42;;;;;;;23.23;15.67;;;7.10;83.20;;;;;;5092800;28;20450;-64
2023/12/01 05:50:17;;;;;;;23.80;17.33;;;7.10;83.10;;;;;;5093284;28;20834;-62
2023/12/01 05:52:46;;;;;;;25.37;17.63;;;7.10;83.10;;;;;;5093552;28;20465;-61
2023/12/01 05:55:17;;;;;;;27.13;18.43;;;7.00;82.90;;;;;;5059458;28;20479;-63
2023/12/01 05:57:44;;;;;;;30.83;23.37;;;7.10;83.00;;;;;;5092229;28;20466;-62
2023/12/01 06:00:17;;;;;;;27.80;20.77;;;7.10;82.90;;;;;;5092683;28;20450;-64
2023/12/01 06:02:45;;;;;;;26.07;20.03;;;7.10;82.90;;;;;;5091838;28;20450;-63
2023/12/01 06:05:12;;;;;;;22.27;17.07;;;7.10;82.80;;;;;;5091441;28;20439;-63
2023/12/01 06:07:41;;;;;;;19.07;14.77;;;7.00;82.60;;;;;;5085731;28;20453;-64
2023/12/01 06:10:09;;;;;;;21.87;16.20;;;7.00;82.60;;;;;;5072973;28;20471;-63
2023/12/01 06:12:38;;;;;;;18.37;14.53;;;7.00;82.60;;;;;;5072469;28;20533;-64
2023/12/01 06:15:07;;;;;;;20.20;14.60;;;7.00;82.60;;;;;;5087168;28;21024;-62
2023/12/01 06:17:35;;;;;;;19.10;14.40;;;7.00;82.70;;;;;;5092845;28;20546;-64
2023/12/01 06:20:02;;;;;;;17.33;14.10;;;7.00;82.60;;;;;;5091945;28;20839;-62
2023/12/01 06:22:31;;;;;;;19.67;14.20;;;7.00;82.60;;;;;;5080678;28;20853;-63
2023/12/01 06:24:58;;;;;;;20.63;14.03;;;7.00;82.70;;;;;;5032366;28;20958;-62
2023/12/01 06:27:24;;;;;;;17.33;14.20;;;7.00;83.50;;;;;;5076348;28;20477;-64
2023/12/01 06:29:51;;;;;;;19.67;14.33;;;7.00;82.70;;;;;;5071658;28;20440;-64
2023/12/01 06:32:18;;;;;;;18.90;14.17;;;7.00;82.70;;;;;;5077682;28;20800;-62
2023/12/01 06:34:47;;;;;;;20.00;14.43;;;7.00;82.60;;;;;;5093140;28;20529;-63
2023/12/01 06:37:13;;;;;;;18.77;13.43;;;6.90;82.50;;;;;;5096584;28;20482;-63
2023/12/01 06:39:40;;;;;;;17.37;13.13;;;7.00;82.60;;;;;;5097578;28;20450;-62
2023/12/01 06:42:08;;;;;;;16.97;12.70;;;7.00;82.50;;;;;;5077692;28;20833;-63
2023/12/01 06:44:38;;;;;;;19.57;14.30;;;7.00;82.60;;;;;;5080054;28;20443;-64
2023/12/01 06:47:05;;;;;;;17.47;12.87;;;7.00;82.60;;;;;;5092905;28;20519;-63
2023/12/01 06:49:32;;;;;;;16.07;13.00;;;7.00;82.50;;;;;;5090851;28;20449;-64
2023/12/01 06:52:02;;;;;;;15.83;13.27;;;6.90;82.50;;;;;;5079624;28;20443;-62
2023/12/01 06:54:29;;;;;;;18.57;13.93;;;6.90;82.60;;;;;;5091948;28;20539;-63
2023/12/01 06:56:56;;;;;;;16.93;12.83;;;6.90;82.60;;;;;;5084352;28;20440;-64
2023/12/01 06:59:23;;;;;;;17.37;13.30;;;7.00;83.00;;;;;;5072455;28;20503;-64
2023/12/01 07:01:50;;;;;;;17.80;13.10;;;7.00;83.00;;;;;;5085147;28;20472;-62
2023/12/01 07:04:17;;;;;;;17.07;13.43;;;6.90;82.90;;;;;;5092047;28;20445;-62
2023/12/01 07:06:46;;;;;;;20.50;13.83;;;7.00;83.00;;;;;;5091935;28;20470;-61
2023/12/01 07:09:17;;;;;;;18.00;13.33;;;7.00;82.90;;;;;;5079450;28;20927;-62
2023/12/01 07:11:45;;;;;;;16.25;12.75;;;6.90;82.80;;;;;;5083350;28;20470;-63
2023/12/01 07:14:12;;;;;;;17.33;12.83;;;7.00;83.00;;;;;;5090631;28;20615;-62
2023/12/01 07:16:40;;;;;;;17.07;13.20;;;7.00;82.90;;;;;;5091695;28;20446;-64
2023/12/01 07:19:07;;;;;;;19.50;12.83;;;6.90;82.80;;;;;;5083881;28;20948;-63
2023/12/01 07:21:34;;;;;;;17.87;13.00;;;6.90;82.90;;;;;;5086978;28;20860;-63
2023/12/01 07:24:02;;;;;;;15.73;12.67;;;6.90;82.90;;;;;;5072416;28;20779;-63
2023/12/01 07:26:33;;;;;;;18.33;13.70;;;6.90;82.90;;;;;;5072451;28;20443;-62
2023/12/01 07:29:00;;;;;;;18.13;13.17;;;6.90;82.90;;;;;;5084916;28;20462;-64
2023/12/01 07:31:27;;;;;;;17.93;13.10;;;6.90;82.90;;;;;;5091024;28;20645;-64
2023/12/01 07:33:54;;;;;;;17.63;13.40;;;6.90;82.90;;;;;;5091326;28;20527;-63
2023/12/01 07:36:21;;;;;;;17.97;13.43;;;7.00;83.00;;;;;;5090427;28;20525;-63
2023/12/01 07:38:47;;;;;;;18.37;14.20;;;6.90;83.00;;;;;;5089416;28;20494;-64
2023/12/01 07:41:14;;;;;;;17.37;12.40;;;6.90;83.00;;;;;;5090482;28;20449;-64
2023/12/01 07:43:43;;;;;;;20.13;14.57;;;6.90;82.90;;;;;;5091271;28;20446;-62
2023/12/01 07:46:09;;;;;;;19.53;13.33;;;7.00;83.10;;;;;;5078120;28;20907;-62
2023/12/01 07:48:36;;;;;;;16.57;12.80;;;7.00;83.10;;;;;;5076121;28;20457;-64
2023/12/01 07:51:04;;;;;;;16.87;13.00;;;7.00;83.80;;;;;;5091069;28;20474;-62
2023/12/01 07:53:31;;;;;;;17.07;12.83;;;7.00;83.10;;;;;;5089262;28;20444;-62
2023/12/01 07:55:59;;;;;;;18.63;13.80;;;7.00;83.20;;;;;;5077615;28;20482;-63
2023/12/01 07:58:26;;;;;;;20.07;12.90;;;7.00;83.20;;;;;;5088062;28;20543;-63
2023/12/01 08:00:57;;;;;;;16.60;12.90;;;7.00;83.20;;;;;;5074939;28;20450;-63
2023/12/01 08:03:26;;;;;;;18.80;13.30;;;7.00;83.30;;;;;;5083465;28;20513;-63
2023/12/01 08:05:53;;;;;;;19.97;13.87;;;7.00;83.30;;;;;;5072321;28;20442;-63
2023/12/01 08:08:20;;;;;;;17.93;12.93;;;7.00;83.30;;;;;;5089226;28;20447;-63
2023/12/01 08:10:46;;;;;;;16.57;13.17;;;7.00;83.40;;;;;;5089830;28;20516;-63
2023/12/01 08:13:13;;;;;;;16.77;13.47;;;7.00;83.30;;;;;;5074970;28;20873;-63
2023/12/01 08:15:40;;;;;;;17.77;13.47;;;7.10;83.40;;;;;;5073205;28;20481;-62
2023/12/01 08:18:08;;;;;;;20.17;14.23;;;7.10;83.40;;;;;;5090951;28;20997;-63
2023/12/01 08:20:35;;;;;;;18.13;13.33;;;7.00;83.30;;;;;;5091675;28;20450;-62
2023/12/01 08:23:03;;;;;;;20.88;14.07;;;7.10;83.30;;;;;;5077881;28;20439;-64
2023/12/01 08:25:29;;;;;;;18.57;13.77;;;7.10;83.30;;;;;;5071453;28;20205;-63
2023/12/01 08:27:56;;;;;;;20.23;13.83;;;7.10;83.20;;;;;;5088535;28;20558;-64
2023/12/01 08:30:24;;;;;;;18.57;14.43;;;7.10;83.30;;;;;;5091064;28;20473;-63
2023/12/01 08:32:51;;;;;;;18.93;13.93;;;7.10;83.30;;;;;;5075324;28;20443;-63
2023/12/01 08:35:21;;;;;;;18.67;13.63;;;7.10;83.30;;;;;;5071306;28;20556;-61
2023/12/01 08:37:51;;;;;;;19.77;14.23;;;7.10;83.30;;;;;;5088798;28;20220;-64
2023/12/01 08:40:18;;;;;;;17.03;13.23;;;7.10;83.30;;;;;;5089718;28;20453;-64
2023/12/01 08:42:44;;;;;;;19.73;14.50;;;7.10;83.30;;;;;;5082474;28;20954;-64
2023/12/01 08:45:11;;;;;;;18.20;14.17;;;7.10;83.20;;;;;;5075602;28;20461;-62
2023/12/01 08:47:39;;;;;;;17.13;13.40;;;7.10;83.20;;;;;;5074622;28;20534;-64
2023/12/01 08:50:07;;;;;;;17.13;13.63;;;7.10;83.40;;;;;;5070934;28;20446;-63
2023/12/01 08:52:36;;;;;;;18.63;14.50;;;7.20;83.50;;;;;;5074549;28;20465;-63
2023/12/01 08:55:03;;;;;;;19.73;14.57;;;7.20;83.50;;;;;;5075288;28;20497;-64
2023/12/01 08:57:29;;;;;;;21.63;15.30;;;7.20;83.40;;;;;;5090451;28;20256;-63
2023/12/01 08:59:57;;;;;;;19.43;14.50;;;7.10;83.40;;;;;;5093724;28;20445;-63
2023/12/01 09:02:24;;;;;;;19.30;14.20;;;7.20;83.50;;;;;;5076987;28;20522;-64
2023/12/01 09:04:51;;;;;;;20.13;15.20;;;7.20;83.60;;;;;;5077438;28;20471;-63
2023/12/01 09:07:18;;;;;;;20.53;14.03;;;7.20;83.50;;;;;;5081923;28;20435;-63
2023/12/01 09:09:46;;;;;;;22.47;15.43;;;7.20;83.70;;;;;;5077490;28;20438;-64
2023/12/01 09:12:13;;;;;;;19.97;13.87;;;7.20;83.60;;;;;;5082705;28;20945;-64
2023/12/01 09:14:41;;;;;;;19.47;14.23;;;7.20;83.80;;;;;;5095020;28;20525;-64
2023/12/01 09:17:08;;;;;;;21.93;14.63;;;7.20;83.80;;;;;;5030905;28;20982;-62
2023/12/01 09:19:35;;;;;;;21.83;15.67;;;7.20;84.00;;;;;;5074825;28;20860;-63
2023/12/01 09:22:02;;;;;;;21.47;14.83;;;7.20;84.00;;;;;;5081807;28;20853;-63
2023/12/01 09:24:29;;;;;;;25.13;16.40;;;7.20;84.00;;;;;;5094982;28;20553;-63
2023/12/01 09:26:57;;;;;;;25.20;15.50;;;7.30;84.10;;;;;;5094306;28;20446;-63
2023/12/01 09:29:25;;;;;;;23.00;15.70;;;7.30;84.10;;;;;;5079716;28;20554;-61
2023/12/01 09:31:52;;;;;;;22.47;15.23;;;7.30;84.10;;;;;;5074359;28;20446;-61
2023/12/01 09:34:19;;;;;;;24.10;14.90;;;7.30;84.10;;;;;;5075978;28;20443;-62
2023/12/01 09:36:48;;;;;;;24.53;15.13;;;7.30;84.10;;;;;;5081943;28;20842;-63
2023/12/01 09:39:16;;;;;;;23.23;15.23;;;7.30;84.10;;;;;;5093908;28;20526;-63
2023/12/01 09:41:44;;;;;;;24.47;17.03;;;7.30;84.10;;;;;;5094601;28;20442;-64
2023/12/01 09:44:12;;;;;;;25.77;16.10;;;7.30;84.10;;;;;;5094666;28;20443;-63
2023/12/01 09:46:39;;;;;;;26.33;16.40;;;7.40;84.20;;;;;;5090286;28;20449;-63
2023/12/01 09:49:07;;;;;;;24.47;15.00;;;7.40;84.20;;;;;;5078869;28;20472;-63
2023/12/01 09:51:36;;;;;;;25.93;16.40;;;7.40;84.20;;;;;;5094615;28;20452;-63
2023/12/01 09:54:04;;;;;;;29.00;16.80;;;7.50;84.40;;;;;;5094739;28;20451;-63
2023/12/01 09:56:31;;;;;;;23.17;14.67;;;7.50;84.30;;;;;;5087573;28;20596;-63
2023/12/01 09:58:59;;;;;;;24.53;16.40;;;7.50;84.30;;;;;;5094581;28;20859;-64
2023/12/01 10:01:28;;;;;;;24.20;15.83;;;7.50;84.30;;;;;;5092721;28;20530;-63
2023/12/01 10:03:55;;;;;;;24.43;15.60;;;7.60;84.40;;;;;;5093532;28;20468;-63
2023/12/01 10:06:23;;;;;;;25.27;16.40;;;7.50;84.30;;;;;;5093614;28;20438;-62
2023/12/01 10:08:51;;;;;;;23.23;15.63;;;7.60;84.50;;;;;;5094260;28;20549;-63
2023/12/01 10:11:23;;;;;;;27.23;16.30;;;7.60;84.50;;;;;;5092774;28;20454;-63
2023/12/01 10:13:51;;;;;;;25.43;16.00;;;7.60;84.40;;;;;;5074065;28;20492;-63
2023/12/01 10:16:18;;;;;;;26.07;16.13;;;7.60;84.40;;;;;;5075174;28;21069;-63
2023/12/01 10:18:59;;;;;;;24.03;16.40;;;7.60;84.40;;;;;;5093776;28;20990;-63
2023/12/01 10:21:45;;;;;;;22.83;16.07;;;7.60;84.40;;;;;;5093407;28;20442;-63
2023/12/01 10:24:17;;;;;;;25.40;14.87;;;7.60;84.40;;;;;;5075800;28;20475;-63
2023/12/01 10:26:44;;;;;;;24.10;16.63;;;7.60;84.40;;;;;;5088484;28;20451;-62
2023/12/01 10:29:29;;;;;;;26.20;16.67;;;7.70;84.80;;;;;;5074660;28;21042;-63
2023/12/01 10:32:00;;;;;;;29.90;17.00;;;7.70;85.60;;;;;;5077062;28;20466;-63
2023/12/01 10:34:29;;;;;;;29.17;16.83;;;7.70;85.10;;;;;;5074446;28;20447;-63
2023/12/01 10:36:57;;;;;;;26.50;17.07;;;7.70;85.00;;;;;;5073233;28;20566;-62
2023/12/01 10:39:27;;;;;;;26.73;16.67;;;7.70;85.80;;;;;;5082494;28;20457;-63
2023/12/01 10:41:55;;;;;;;28.27;18.27;;;7.70;85.00;;;;;;5093284;28;20528;-63
2023/12/01 10:44:24;;;;;;;24.53;16.33;;;7.70;85.00;;;;;;5091702;28;20931;-64
2023/12/01 10:46:52;;;;;;;28.63;17.97;;;7.80;84.80;;;;;;5072935;28;20938;-62
2023/12/01 10:49:20;;;;;;;28.20;17.53;;;7.80;84.80;;;;;;5080619;28;20450;-63
2023/12/01 10:51:52;;;;;;;25.80;16.50;;;7.80;84.90;;;;;;5093065;28;20442;-62
2023/12/01 10:54:23;;;;;;;26.47;16.03;;;7.80;85.00;;;;;;5093175;28;20447;-61
2023/12/01 10:57:01;;;;;;;27.20;16.90;;;7.80;85.10;;;;;;5093244;28;20564;-64
2023/12/01 10:59:29;;;;;;;27.23;16.73;;;7.80;85.10;;;;;;5087636;28;20472;-63
2023/12/01 11:02:00;;;;;;;28.40;17.20;;;7.80;85.10;;;;;;5092857;28;20546;-64
2023/12/01 11:04:27;;;;;;;29.13;17.60;;;7.80;84.90;;;;;;5076186;28;20446;-64
2023/12/01 11:07:26;;;;;;;26.73;17.27;;;7.80;84.80;;;;;;5073100;28;20498;-63
2023/12/01 11:10:06;;;;;;;26.20;17.80;;;7.80;85.50;;;;;;5084475;28;20530;-63
2023/12/01 11:12:45;;;;;;;28.60;17.37;;;7.80;85.50;;;;;;5092588;28;20446;-62
2023/12/01 11:15:17;;;;;;;26.73;17.27;;;7.80;85.10;;;;;;5092125;28;20478;-63
2023/12/01 11:17:44;;;;;;;26.40;16.77;;;7.90;85.10;;;;;;5085778;28;20483;-64
2023/12/01 11:20:34;;;;;;;25.20;16.80;;;7.90;84.90;;;;;;5087693;28;20471;-64
2023/12/01 11:23:23;;;;;;;24.03;16.67;;;7.90;85.00;;;;;;5078022;28;20444;-64
2023/12/01 11:25:55;;;;;;;26.60;17.37;;;7.90;85.10;;;;;;5072572;28;20435;-63
2023/12/01 11:28:27;;;;;;;27.57;17.57;;;7.90;85.20;;;;;;5081740;28;20474;-63
2023/12/01 11:31:05;;;;;;;30.10;18.03;;;7.80;85.00;;;;;;5070887;28;20923;-63
2023/12/01 11:33:33;;;;;;;28.93;18.03;;;7.90;85.20;;;;;;5087258;28;20451;-64
2023/12/01 11:36:26;;;;;;;27.87;16.87;;;7.90;85.10;;;;;;5092251;28;20502;-64
2023/12/01 11:39:23;;;;;;;25.23;17.53;;;7.90;85.20;;;;;;5082699;28;20443;-62
2023/12/01 11:42:13;;;;;;;25.33;16.93;;;7.90;85.20;;;;;;5072289;28;20537;-62
2023/12/01 11:44:41;;;;;;;26.40;16.50;;;7.90;85.00;;;;;;5072032;28;20435;-63
2023/12/01 11:47:12;;;;;;;28.07;17.80;;;7.90;84.80;;;;;;5071966;28;20530;-63
2023/12/01 11:49:41;;;;;;;28.80;19.00;;;7.90;84.90;;;;;;5085648;28;20948;-63
2023/12/01 11:52:11;;;;;;;26.87;17.40;;;7.90;84.80;;;;;;5076462;28;20443;-62
2023/12/01 11:54:40;;;;;;;26.47;18.90;;;7.90;84.70;;;;;;5071493;28;20446;-64
2023/12/01 11:57:09;;;;;;;27.83;17.23;;;7.90;84.80;;;;;;5071879;28;20555;-63
2023/12/01 11:59:36;;;;;;;26.97;17.57;;;7.90;85.00;;;;;;5091645;28;20980;-63
2023/12/01 12:02:04;;;;;;;26.90;17.80;;;8.00;85.00;;;;;;5092051;28;20474;-64
2023/12/01 12:04:32;;;;;;;26.97;17.93;;;8.00;85.10;;;;;;5038282;28;20475;-63
2023/12/01 12:07:00;;;;;;;27.40;17.50;;;8.00;85.20;;;;;;5072324;28;20799;-63
2023/12/01 12:09:31;;;;;;;31.17;18.77;;;8.00;85.80;;;;;;5071652;28;21040;-63
2023/12/01 12:12:01;;;;;;;30.27;19.17;;;8.00;84.90;;;;;;5071972;28;20451;-63
2023/12/01 12:14:29;;;;;;;27.00;17.97;;;8.00;85.00;;;;;;5053341;28;20448;-63
2023/12/01 12:16:56;;;;;;;32.63;19.33;;;7.90;84.90;;;;;;5071061;28;20983;-63
2023/12/01 12:19:23;;;;;;;29.13;17.90;;;8.00;85.10;;;;;;5071343;28;20670;-61
2023/12/01 12:21:50;;;;;;;30.27;18.90;;;8.00;85.10;;;;;;5075413;28;20457;-63
2023/12/01 12:24:18;;;;;;;29.60;18.70;;;8.00;84.90;;;;;;5055565;28;20505;-63
2023/12/01 12:26:45;;;;;;;29.17;17.73;;;8.00;84.90;;;;;;5090169;28;20442;-63
2023/12/01 12:29:13;;;;;;;25.57;16.20;;;8.00;84.80;;;;;;5071038;28;20481;-64
2023/12/01 12:31:42;;;;;;;30.07;18.00;;;8.00;84.80;;;;;;5088680;28;20443;-63
2023/12/01 12:34:10;;;;;;;27.80;18.67;;;8.00;84.80;;;;;;5070901;28;20504;-63
2023/12/01 12:36:38;;;;;;;26.97;17.00;;;8.00;84.80;;;;;;5071083;28;20525;-63
2023/12/01 12:39:07;;;;;;;29.20;18.40;;;8.00;84.80;;;;;;5075208;28;20470;-63
2023/12/01 12:41:36;;;;;;;27.30;16.97;;;8.00;84.80;;;;;;5089871;28;20942;-63
2023/12/01 12:44:05;;;;;;;24.97;16.87;;;8.00;85.60;;;;;;5090915;28;20555;-63